createdAt,value
2023-05-09T02:17:50.271Z,13.18
2023-05-09T02:19:52.492Z,13.90
2023-05-09T02:21:54.664Z,14.35
2023-05-09T02:23:57.118Z,15.07
2023-05-09T02:25:59.456Z,14.30
2023-05-09T02:28:02.070Z,13.05
2023-05-09T02:30:07.475Z,13.98
2023-05-09T02:32:11.448Z,14.15
2023-05-09T02:34:14.638Z,12.68
2023-05-09T02:36:16.904Z,13.98
2023-05-09T02:38:19.337Z,13.75
2023-05-09T02:40:21.536Z,12.60
2023-05-09T02:42:28.759Z,13.95
2023-05-09T02:44:31.292Z,12.77
2023-05-09T02:46:34.425Z,12.63
2023-05-09T02:48:37.498Z,13.10
2023-05-09T02:50:42.934Z,13.95
2023-05-09T02:52:45.101Z,13.55
2023-05-09T02:54:48.340Z,14.57
2023-05-09T02:56:50.532Z,13.82
2023-05-09T02:58:52.689Z,13.30
2023-05-09T03:00:54.903Z,12.80
2023-05-09T03:02:57.085Z,12.77
2023-05-09T03:04:59.340Z,14.02
2023-05-09T03:07:01.556Z,14.07
2023-05-09T03:09:03.914Z,13.93
2023-05-09T03:11:06.343Z,14.10
2023-05-09T03:13:10.101Z,13.80
2023-05-09T03:15:12.445Z,14.15
2023-05-09T03:17:21.209Z,13.82
2023-05-09T03:19:23.434Z,13.43
2023-05-09T03:21:25.811Z,12.73
2023-05-09T03:23:27.956Z,13.27
2023-05-09T03:25:30.090Z,12.27
2023-05-09T03:27:32.228Z,13.80
2023-05-09T03:29:35.559Z,13.95
2023-05-09T03:31:37.802Z,12.40
2023-05-09T03:33:39.976Z,13.45
2023-05-09T03:35:42.211Z,14.05
2023-05-09T03:37:44.323Z,13.45
2023-05-09T03:39:46.471Z,13.38
2023-05-09T03:41:49.192Z,14.00
2023-05-09T03:45:53.369Z,13.55
2023-05-09T03:47:55.554Z,12.95
2023-05-09T03:49:57.742Z,13.48
2023-05-09T03:51:59.900Z,12.73
2023-05-09T03:54:02.040Z,12.27
2023-05-09T03:56:04.220Z,13.43
2023-05-09T03:58:06.386Z,13.55
2023-05-09T04:00:10.223Z,13.50
2023-05-09T04:02:12.544Z,12.65
2023-05-09T04:04:14.803Z,12.68
2023-05-09T04:06:16.974Z,14.52
2023-05-09T04:08:19.137Z,13.27
2023-05-09T04:10:21.415Z,13.70
2023-05-09T04:12:23.572Z,13.68
2023-05-09T04:14:25.775Z,13.13
2023-05-09T04:16:28.155Z,13.43
2023-05-09T04:18:31.321Z,12.68
2023-05-09T04:20:33.580Z,13.15
2023-05-09T04:22:36.270Z,12.95
2023-05-09T04:26:41.031Z,12.50
2023-05-09T04:30:45.838Z,13.07
2023-05-09T04:36:53.565Z,13.10
2023-05-09T04:38:56.205Z,11.80
2023-05-09T04:40:58.604Z,13.52
2023-05-09T04:43:00.931Z,14.23
2023-05-09T04:45:03.190Z,14.48
2023-05-09T04:47:05.553Z,14.05
2023-05-09T04:49:07.849Z,13.40
2023-05-09T04:51:10.258Z,13.60
2023-05-09T04:53:12.396Z,14.23
2023-05-09T04:55:14.834Z,14.77
2023-05-09T04:57:18.771Z,15.27
2023-05-09T04:59:21.316Z,14.88
2023-05-09T05:01:23.460Z,15.50
2023-05-09T05:03:25.687Z,17.42
2023-05-09T05:05:28.054Z,16.30
2023-05-09T05:07:30.348Z,17.48
2023-05-09T05:09:32.597Z,16.75
2023-05-09T05:11:34.771Z,17.98
2023-05-09T05:13:36.994Z,16.73
2023-05-09T05:15:39.119Z,16.77
2023-05-09T05:17:41.313Z,17.60
2023-05-09T05:19:43.481Z,17.95
2023-05-09T05:21:45.627Z,17.33
2023-05-09T05:23:47.825Z,16.52
2023-05-09T05:25:50.000Z,16.42
2023-05-09T05:27:52.225Z,18.00
2023-05-09T05:29:54.373Z,16.02
2023-05-09T05:31:56.705Z,16.92
2023-05-09T05:33:58.965Z,17.20
2023-05-09T05:36:01.215Z,16.05
2023-05-09T05:38:03.413Z,16.77
2023-05-09T05:40:06.070Z,17.25
2023-05-09T05:44:10.364Z,16.75
2023-05-09T05:46:12.527Z,15.77
2023-05-09T05:48:14.658Z,16.33
2023-05-09T05:50:16.772Z,15.75
2023-05-09T05:52:18.917Z,14.57
2023-05-09T05:54:21.048Z,15.73
2023-05-09T05:56:23.163Z,14.52
2023-05-09T05:58:25.576Z,15.80
2023-05-09T06:00:27.901Z,14.60
2023-05-09T06:02:30.128Z,15.20
2023-05-09T06:04:32.503Z,14.50
2023-05-09T06:06:34.759Z,14.52
2023-05-09T06:08:36.921Z,14.98
2023-05-09T06:10:39.101Z,14.20
2023-05-09T06:12:41.277Z,14.55
2023-05-09T06:14:43.854Z,14.57
2023-05-09T06:16:46.060Z,14.30
2023-05-09T06:18:48.689Z,14.25
2023-05-09T06:20:50.930Z,14.02
2023-05-09T06:22:53.160Z,14.27
2023-05-09T06:24:55.347Z,13.55
2023-05-09T06:26:57.474Z,13.63
2023-05-09T06:28:59.738Z,13.75
2023-05-09T06:31:02.110Z,13.18
2023-05-09T06:33:04.375Z,13.20
2023-05-09T06:35:06.838Z,13.93
2023-05-09T06:37:09.087Z,13.00
2023-05-09T06:39:11.375Z,13.13
2023-05-09T06:41:13.599Z,13.93
2023-05-09T06:43:15.881Z,13.63
2023-05-09T06:45:18.305Z,14.85
2023-05-09T06:47:20.705Z,13.55
2023-05-09T06:49:22.880Z,13.13
2023-05-09T06:51:25.102Z,13.98
2023-05-09T06:53:27.337Z,14.60
2023-05-09T06:55:29.522Z,13.98
2023-05-09T06:57:32.166Z,14.35
2023-05-09T06:59:34.460Z,12.80
2023-05-09T07:01:36.768Z,13.13
2023-05-09T07:03:38.973Z,13.05
2023-05-09T07:05:41.210Z,13.60
2023-05-09T07:07:43.392Z,15.35
2023-05-09T07:09:45.622Z,13.02
2023-05-09T07:11:47.821Z,14.02
2023-05-09T07:13:49.959Z,12.68
2023-05-09T07:15:52.279Z,13.20
2023-05-09T07:17:54.688Z,12.48
2023-05-09T07:19:56.887Z,12.57
2023-05-09T07:21:59.107Z,12.32
2023-05-09T07:24:01.274Z,12.82
2023-05-09T07:26:03.441Z,11.88
2023-05-09T07:28:05.790Z,12.27
2023-05-09T07:30:09.293Z,12.45
2023-05-09T07:32:11.557Z,12.68
2023-05-09T07:34:13.782Z,12.60
2023-05-09T07:36:17.112Z,12.60
2023-05-09T07:38:19.322Z,11.45
2023-05-09T07:40:21.472Z,12.27
2023-05-09T07:42:23.682Z,11.45
2023-05-09T07:44:26.271Z,11.15
2023-05-09T07:48:30.818Z,11.55
2023-05-09T07:50:33.052Z,11.07
2023-05-09T07:52:35.328Z,11.82
2023-05-09T07:54:37.646Z,11.07
2023-05-09T07:56:39.917Z,10.98
2023-05-09T07:58:42.196Z,10.88
2023-05-09T08:00:44.375Z,11.00
2023-05-09T08:02:46.656Z,9.93
2023-05-09T08:04:49.270Z,10.35
2023-05-09T08:06:51.497Z,10.13
2023-05-09T08:08:53.663Z,10.20
2023-05-09T08:10:56.673Z,10.18
2023-05-09T08:12:58.913Z,9.95
2023-05-09T08:15:01.297Z,10.05
2023-05-09T08:17:03.461Z,10.38
2023-05-09T08:19:05.660Z,10.90
2023-05-09T08:21:07.830Z,10.43
2023-05-09T08:23:10.014Z,11.07
2023-05-09T08:25:14.011Z,9.57
2023-05-09T08:27:16.423Z,10.57
2023-05-09T08:29:18.703Z,10.05
2023-05-09T08:31:21.229Z,9.48
2023-05-09T08:33:23.440Z,8.85
2023-05-09T08:35:25.723Z,10.05
2023-05-09T08:37:29.064Z,9.65
2023-05-09T08:39:31.791Z,9.40
2023-05-09T08:43:39.064Z,9.25
2023-05-09T08:45:49.904Z,8.07
2023-05-09T08:47:52.277Z,9.15
2023-05-09T08:49:54.596Z,8.30
2023-05-09T08:51:57.471Z,8.23
2023-05-09T08:53:59.938Z,9.27
2023-05-09T08:56:03.735Z,8.93
2023-05-09T08:58:06.340Z,8.27
2023-05-09T09:00:12.256Z,9.70
2023-05-09T09:02:15.284Z,8.60
2023-05-09T09:04:18.019Z,8.75
2023-05-09T09:08:23.515Z,7.20
2023-05-09T09:10:27.514Z,8.32
2023-05-09T09:12:29.805Z,9.20
2023-05-09T09:14:32.345Z,7.90
2023-05-09T09:16:36.284Z,8.27
2023-05-09T09:18:39.803Z,7.75
2023-05-09T09:20:46.239Z,7.65
2023-05-09T09:22:48.903Z,7.05
2023-05-09T09:24:51.570Z,9.95
2023-05-09T09:26:53.798Z,8.32
2023-05-09T09:31:21.291Z,9.68
2023-05-09T09:33:24.587Z,9.68
2023-05-09T09:35:26.893Z,8.73
2023-05-09T09:37:29.088Z,9.02
2023-05-09T09:39:31.360Z,8.57
2023-05-09T09:41:34.312Z,9.68
2023-05-09T09:43:36.590Z,9.93
2023-05-09T09:45:42.504Z,10.00
2023-05-09T09:47:45.382Z,9.05
2023-05-09T09:49:47.919Z,10.00
2023-05-09T09:51:52.859Z,9.45
2023-05-09T09:53:55.723Z,9.35
2023-05-09T09:55:58.546Z,8.65
2023-05-09T09:58:00.792Z,9.38
2023-05-09T10:00:04.900Z,9.70
2023-05-09T10:02:08.383Z,8.70
2023-05-09T10:04:16.733Z,8.60
2023-05-09T10:06:19.105Z,7.78
2023-05-09T10:08:21.296Z,8.32
2023-05-09T10:10:23.716Z,8.30
2023-05-09T10:12:26.048Z,7.70
2023-05-09T10:14:28.611Z,8.63
2023-05-09T10:16:42.649Z,7.25
2023-05-09T10:18:46.240Z,7.15
2023-05-09T10:20:48.528Z,7.15
2023-05-09T10:22:51.256Z,6.65
2023-05-09T10:27:00.586Z,8.90
2023-05-09T10:29:07.523Z,8.40
2023-05-09T10:31:20.398Z,9.00
2023-05-09T10:33:27.977Z,8.25
2023-05-09T10:35:32.847Z,10.15
2023-05-09T10:37:37.305Z,9.15
2023-05-09T10:39:40.624Z,8.25
2023-05-09T10:41:42.947Z,7.65
2023-05-09T10:43:46.067Z,9.07
2023-05-09T10:45:48.654Z,9.80
2023-05-09T10:47:52.936Z,10.10
2023-05-09T10:49:55.688Z,9.75
2023-05-09T10:51:58.113Z,9.82
2023-05-09T10:54:00.335Z,10.65
2023-05-09T10:56:03.813Z,10.05
2023-05-09T10:58:24.645Z,10.27
2023-05-09T11:00:26.840Z,9.85
2023-05-09T11:02:34.348Z,10.50
2023-05-09T11:04:36.612Z,8.32
2023-05-09T11:06:42.193Z,6.95
2023-05-09T11:08:44.533Z,7.25
2023-05-09T11:10:46.834Z,6.90
2023-05-09T11:12:59.096Z,8.80
2023-05-09T11:15:09.134Z,7.93
2023-05-09T11:17:13.091Z,8.15
2023-05-09T11:19:34.054Z,9.35
2023-05-09T11:21:37.271Z,10.05
2023-05-09T11:23:39.721Z,9.70
2023-05-09T11:25:42.766Z,9.20
2023-05-09T11:27:46.045Z,9.57
2023-05-09T11:29:58.416Z,8.73
2023-05-09T11:32:10.196Z,11.70
2023-05-09T11:34:12.397Z,12.43
2023-05-09T11:36:25.503Z,11.65
2023-05-09T11:38:28.070Z,10.40
2023-05-09T11:40:30.980Z,11.88
2023-05-09T11:42:33.186Z,12.63
2023-05-09T11:44:35.716Z,11.00
2023-05-09T11:46:37.909Z,9.68
2023-05-09T11:48:41.866Z,11.00
2023-05-09T11:50:48.316Z,11.35
2023-05-09T11:52:51.067Z,11.85
2023-05-09T11:56:55.524Z,11.85
2023-05-09T11:58:59.143Z,12.15
2023-05-09T12:01:01.676Z,11.32
2023-05-09T12:03:06.012Z,10.90
2023-05-09T12:05:12.321Z,11.63
2023-05-09T12:07:16.542Z,11.48
2023-05-09T12:09:20.042Z,12.55
2023-05-09T12:11:23.893Z,12.32
2023-05-09T12:13:26.569Z,11.85
2023-05-09T12:17:31.576Z,11.55
2023-05-09T12:19:33.848Z,10.88
2023-05-09T12:21:35.997Z,10.77
2023-05-09T12:23:38.185Z,10.82
2023-05-09T12:25:41.011Z,10.80
2023-05-09T12:27:43.274Z,10.13
2023-05-09T12:29:47.670Z,11.10
2023-05-09T12:31:50.369Z,12.23
2023-05-09T12:36:16.043Z,10.80
2023-05-09T12:38:23.343Z,11.32
2023-05-09T12:40:26.211Z,10.02
2023-05-09T12:44:31.482Z,6.93
2023-05-09T12:46:35.686Z,7.43
2023-05-09T12:48:39.115Z,6.40
2023-05-09T12:50:41.396Z,6.68
2023-05-09T12:53:01.829Z,6.18
2023-05-09T12:55:06.791Z,6.35
2023-05-09T12:57:21.554Z,7.72
2023-05-09T12:59:24.574Z,7.03
2023-05-09T13:01:30.346Z,6.68
2023-05-09T13:03:37.897Z,5.97
2023-05-09T13:05:40.160Z,6.78
2023-05-09T13:07:43.020Z,6.07
2023-05-09T13:09:57.372Z,5.65
2023-05-09T13:12:00.616Z,6.10
2023-05-09T13:14:04.267Z,6.45
2023-05-09T13:16:09.449Z,5.88
2023-05-09T13:18:12.728Z,6.90
2023-05-09T13:20:15.242Z,6.15
2023-05-09T13:22:17.723Z,6.45
2023-05-09T13:24:19.860Z,7.10
2023-05-09T13:26:22.772Z,6.95
2023-05-09T13:28:24.934Z,6.65
2023-05-09T13:30:27.205Z,6.32
2023-05-09T13:32:29.507Z,6.38
2023-05-09T13:34:31.812Z,5.65
2023-05-09T13:36:34.007Z,6.15
2023-05-09T13:38:40.794Z,7.28
2023-05-09T13:40:43.068Z,6.40
2023-05-09T13:42:45.441Z,6.43
2023-05-09T13:44:47.755Z,5.47
2023-05-09T13:46:50.626Z,5.88
2023-05-09T13:48:52.900Z,5.30
2023-05-09T13:50:56.069Z,5.60
2023-05-09T13:52:58.652Z,6.00
2023-05-09T13:55:01.054Z,4.82
2023-05-09T13:57:04.088Z,5.57
2023-05-09T13:59:06.842Z,3.55
2023-05-09T14:03:11.324Z,5.55
2023-05-09T14:05:13.496Z,4.10
2023-05-09T14:07:16.857Z,3.17
2023-05-09T14:09:19.395Z,4.40
2023-05-09T14:11:21.661Z,5.40
2023-05-09T14:13:24.022Z,5.78
2023-05-09T14:15:26.395Z,5.25
2023-05-09T14:17:28.623Z,5.15
2023-05-09T14:19:30.944Z,4.45
2023-05-09T14:21:33.417Z,4.22
2023-05-09T14:23:35.721Z,3.65
2023-05-09T14:25:37.965Z,3.03
2023-05-09T14:27:40.160Z,3.88
2023-05-09T14:29:43.124Z,4.47
2023-05-09T14:31:45.485Z,3.50
2023-05-09T14:33:47.693Z,4.38
2023-05-09T14:35:49.920Z,4.18
2023-05-09T14:37:52.118Z,3.45
2023-05-09T14:39:54.332Z,3.17
2023-05-09T14:41:56.733Z,3.13
2023-05-09T14:43:59.416Z,3.35
2023-05-09T14:48:03.981Z,3.78
2023-05-09T14:50:07.362Z,4.13
2023-05-09T14:52:11.031Z,4.07
2023-05-09T14:54:13.216Z,3.90
2023-05-09T14:56:15.404Z,5.15
2023-05-09T14:58:18.102Z,3.25
2023-05-09T15:00:22.228Z,6.28
2023-05-09T15:02:24.707Z,4.90
2023-05-09T15:04:30.487Z,5.82
2023-05-09T15:06:32.823Z,5.20
2023-05-09T15:08:35.622Z,5.85
2023-05-09T15:10:37.814Z,5.15
2023-05-09T15:12:39.951Z,5.43
2023-05-09T15:14:42.337Z,4.82
2023-05-09T15:16:44.774Z,3.78
2023-05-09T15:20:49.261Z,3.65
2023-05-09T15:22:51.507Z,3.42
2023-05-09T15:24:53.743Z,4.60
2023-05-09T15:26:56.032Z,3.65
2023-05-09T15:28:58.210Z,4.43
2023-05-09T15:31:00.430Z,4.68
2023-05-09T15:33:02.671Z,4.45
2023-05-09T15:35:05.791Z,4.57
2023-05-09T15:37:07.984Z,5.35
2023-05-09T15:39:10.170Z,5.80
2023-05-09T15:41:12.390Z,5.55
2023-05-09T15:43:14.604Z,4.57
2023-05-09T15:45:16.898Z,5.32
2023-05-09T15:47:19.120Z,4.80
2023-05-09T15:49:21.416Z,4.45
2023-05-09T15:51:23.630Z,6.10
2023-05-09T15:53:27.607Z,5.70
2023-05-09T15:55:29.772Z,5.15
2023-05-09T15:57:31.945Z,5.45
2023-05-09T15:59:34.344Z,5.60
2023-05-09T16:01:36.480Z,4.68
2023-05-09T16:03:38.835Z,5.88
2023-05-09T16:05:41.322Z,5.75
2023-05-09T16:07:47.150Z,5.78
2023-05-09T16:09:49.385Z,5.40
2023-05-09T16:11:51.625Z,5.72
2023-05-09T16:13:53.845Z,6.15
2023-05-09T16:15:56.771Z,6.35
2023-05-09T16:17:59.072Z,6.22
2023-05-09T16:20:02.001Z,6.80
2023-05-09T16:22:04.371Z,6.50
2023-05-09T16:24:06.762Z,6.85
2023-05-09T16:26:08.973Z,6.85
2023-05-09T16:28:11.627Z,7.13
2023-05-09T16:32:19.316Z,6.40
2023-05-09T16:34:21.481Z,7.47
2023-05-09T16:36:24.169Z,6.75
2023-05-09T16:38:26.726Z,7.38
2023-05-09T16:40:28.943Z,7.53
2023-05-09T16:42:31.185Z,6.68
2023-05-09T16:44:33.562Z,8.30
2023-05-09T16:46:35.776Z,8.13
2023-05-09T16:48:37.975Z,8.60
2023-05-09T16:50:43.308Z,7.80
2023-05-09T16:52:45.554Z,8.32
2023-05-09T16:54:49.151Z,8.25
2023-05-09T16:56:51.533Z,8.48
2023-05-09T16:58:53.744Z,8.52
2023-05-09T17:00:57.109Z,8.45
2023-05-09T17:02:59.459Z,8.55
2023-05-09T17:05:01.668Z,8.80
2023-05-09T17:07:03.994Z,8.05
2023-05-09T17:09:06.260Z,9.15
2023-05-09T17:11:09.182Z,9.52
2023-05-09T17:13:11.413Z,9.32
2023-05-09T17:15:13.930Z,9.10
2023-05-09T17:17:17.736Z,8.45
2023-05-09T17:19:23.250Z,9.68
2023-05-09T17:21:26.059Z,7.95
2023-05-09T17:25:30.656Z,8.02
2023-05-09T17:27:32.952Z,8.25
2023-05-09T17:29:35.065Z,7.93
2023-05-09T17:31:37.350Z,7.45
2023-05-09T17:33:40.070Z,7.65
2023-05-09T17:37:44.453Z,7.75
2023-05-09T17:39:47.123Z,7.90
2023-05-09T17:43:56.445Z,7.75
2023-05-09T17:45:59.157Z,7.07
2023-05-09T17:50:04.718Z,7.50
2023-05-09T17:52:06.916Z,8.30
2023-05-09T17:54:09.169Z,8.02
2023-05-09T17:56:11.423Z,7.78
2023-05-09T17:58:14.970Z,7.07
2023-05-09T18:00:17.755Z,7.20
2023-05-09T18:04:27.237Z,7.22
2023-05-09T18:06:29.442Z,6.47
2023-05-09T18:08:31.656Z,6.60
2023-05-09T18:10:34.203Z,6.05
2023-05-09T18:12:37.301Z,5.32
2023-05-09T18:14:40.071Z,6.10
2023-05-09T18:16:42.590Z,6.85
2023-05-09T18:18:45.026Z,6.35
2023-05-09T18:20:47.433Z,6.20
2023-05-09T18:22:49.557Z,6.25
2023-05-09T18:24:52.928Z,6.50
2023-05-09T18:26:55.156Z,6.90
2023-05-09T18:28:57.434Z,6.97
2023-05-09T18:31:00.762Z,6.60
2023-05-09T18:33:03.201Z,5.93
2023-05-09T18:35:05.654Z,6.30
2023-05-09T18:37:07.883Z,6.00
2023-05-09T18:39:11.769Z,6.05
2023-05-09T18:41:15.559Z,6.10
2023-05-09T18:43:18.102Z,6.55
2023-05-09T18:45:20.354Z,6.03
2023-05-09T18:47:24.642Z,6.13
2023-05-09T18:49:27.151Z,6.40
2023-05-09T18:51:31.101Z,6.38
2023-05-09T18:53:33.254Z,6.45
2023-05-09T18:55:35.436Z,6.95
2023-05-09T18:57:37.599Z,6.53
2023-05-09T18:59:40.732Z,6.00
2023-05-09T19:01:44.027Z,6.40
2023-05-09T19:03:47.627Z,5.70
2023-05-09T19:05:49.906Z,5.88
2023-05-09T19:07:54.047Z,5.97
2023-05-09T19:09:56.513Z,6.18
2023-05-09T19:12:01.788Z,6.50
2023-05-09T19:14:05.131Z,6.07
2023-05-09T19:16:08.439Z,5.90
2023-05-09T19:18:10.844Z,6.50
2023-05-09T19:20:13.580Z,6.78
2023-05-09T19:22:16.034Z,6.57
2023-05-09T19:24:18.211Z,5.88
2023-05-09T19:26:22.097Z,6.30
2023-05-09T19:28:24.295Z,6.78
2023-05-09T19:30:26.492Z,6.93
2023-05-09T19:32:28.873Z,6.18
2023-05-09T19:34:31.097Z,6.05
2023-05-09T19:36:33.697Z,7.35
2023-05-09T19:38:35.850Z,6.55
2023-05-09T19:40:38.240Z,7.00
2023-05-09T19:42:41.913Z,6.70
2023-05-09T19:44:44.215Z,6.90
2023-05-09T19:46:47.262Z,6.45
2023-05-09T19:48:49.559Z,6.60
2023-05-09T19:50:56.552Z,6.95
2023-05-09T19:52:59.024Z,6.60
2023-05-09T19:55:01.253Z,6.28
2023-05-09T19:57:06.362Z,6.50
2023-05-09T19:59:08.651Z,6.78
2023-05-09T20:01:11.074Z,6.30
2023-05-09T20:03:13.510Z,6.82
2023-05-09T20:05:15.772Z,6.72
2023-05-09T20:07:18.477Z,6.57
2023-05-09T20:11:23.250Z,6.30
2023-05-09T20:13:25.518Z,6.25
2023-05-09T20:15:27.921Z,6.70
2023-05-09T20:17:30.119Z,6.45
2023-05-09T20:19:33.204Z,6.63
2023-05-09T20:21:35.611Z,6.40
2023-05-09T20:23:39.526Z,6.45
2023-05-09T20:25:41.758Z,6.03
2023-05-09T20:27:44.002Z,6.10
2023-05-09T20:29:46.369Z,6.97
2023-05-09T20:31:48.622Z,6.32
2023-05-09T20:33:51.417Z,6.22
2023-05-09T20:37:55.861Z,5.93
2023-05-09T20:39:58.159Z,6.45
2023-05-09T20:42:02.584Z,7.28
2023-05-09T20:44:04.920Z,7.30
2023-05-09T20:46:07.342Z,6.97
2023-05-09T20:48:09.642Z,6.35
2023-05-09T20:50:11.911Z,7.18
2023-05-09T20:52:14.222Z,6.45
2023-05-09T20:54:16.924Z,7.00
2023-05-09T20:56:19.562Z,6.47
2023-05-09T20:58:21.698Z,7.30
2023-05-09T21:00:24.090Z,6.70
2023-05-09T21:02:26.323Z,6.82
2023-05-09T21:04:28.582Z,7.35
2023-05-09T21:06:31.080Z,7.20
2023-05-09T21:08:33.234Z,7.68
2023-05-09T21:10:35.389Z,7.20
2023-05-09T21:12:37.624Z,7.85
2023-05-09T21:14:39.870Z,6.85
2023-05-09T21:16:43.969Z,7.35
2023-05-09T21:18:46.310Z,6.95
2023-05-09T21:20:48.565Z,6.70
2023-05-09T21:22:50.727Z,4.90
2023-05-09T21:24:52.905Z,4.18
2023-05-09T21:26:55.068Z,3.08
2023-05-09T21:28:57.251Z,3.67
2023-05-09T21:31:01.519Z,3.10
2023-05-09T21:33:04.127Z,2.35
2023-05-09T21:35:10.627Z,2.10
2023-05-09T21:37:12.825Z,2.25
2023-05-09T21:39:15.059Z,1.75
2023-05-09T21:41:17.495Z,1.90
2023-05-09T21:43:20.204Z,1.90
2023-05-09T21:47:24.531Z,1.80
2023-05-09T21:49:28.683Z,1.80
2023-05-09T21:51:31.585Z,1.67
2023-05-09T21:53:33.733Z,1.73
2023-05-09T21:55:35.918Z,1.58
2023-05-09T21:57:38.108Z,1.30
2023-05-09T21:59:40.287Z,1.10
2023-05-09T22:01:44.367Z,1.35
2023-05-09T22:03:47.954Z,1.33
2023-05-09T22:05:50.299Z,1.27
2023-05-09T22:07:52.462Z,1.40
2023-05-09T22:09:54.674Z,1.38
2023-05-09T22:11:56.888Z,1.00
2023-05-09T22:13:59.085Z,1.02
2023-05-09T22:16:01.308Z,0.90
2023-05-09T22:18:03.570Z,0.90
2023-05-09T22:20:06.179Z,0.85
2023-05-09T22:22:08.317Z,0.95
2023-05-09T22:24:10.479Z,0.90
2023-05-09T22:26:12.634Z,0.93
2023-05-09T22:28:15.044Z,0.90
2023-05-09T22:30:17.424Z,0.90
2023-05-09T22:32:19.814Z,0.80
2023-05-09T22:34:22.560Z,1.17
2023-05-09T22:36:25.329Z,0.73
2023-05-09T22:40:29.886Z,0.77
2023-05-09T22:42:32.093Z,0.90
2023-05-09T22:44:34.253Z,1.10
2023-05-09T22:46:36.435Z,0.88
2023-05-09T22:48:38.590Z,1.00
2023-05-09T22:50:41.105Z,0.88
2023-05-09T22:52:43.284Z,1.00
2023-05-09T22:54:45.471Z,0.82
2023-05-09T22:56:47.913Z,1.02
2023-05-09T22:58:50.176Z,0.95
2023-05-09T23:00:52.403Z,1.10
2023-05-09T23:02:54.652Z,1.00
2023-05-09T23:04:56.893Z,1.10
2023-05-09T23:06:59.019Z,1.27
2023-05-09T23:09:01.178Z,1.10
2023-05-09T23:11:03.341Z,1.10
2023-05-09T23:13:05.535Z,1.08
2023-05-09T23:15:07.982Z,0.90
2023-05-09T23:17:10.178Z,1.35
2023-05-09T23:19:12.339Z,0.98
2023-05-09T23:21:14.639Z,1.08
2023-05-09T23:23:16.930Z,1.30
2023-05-09T23:25:19.125Z,0.98
2023-05-09T23:27:21.601Z,1.10
2023-05-09T23:29:25.073Z,1.33
2023-05-09T23:31:27.315Z,1.00
2023-05-09T23:33:29.502Z,1.30
2023-05-09T23:35:32.009Z,1.30
2023-05-09T23:37:34.255Z,1.25
2023-05-09T23:39:36.401Z,1.08
2023-05-09T23:41:38.831Z,1.00
2023-05-09T23:43:41.106Z,1.00
2023-05-09T23:45:43.256Z,1.10
2023-05-09T23:47:45.435Z,1.00
2023-05-09T23:49:47.620Z,1.05
2023-05-09T23:51:49.773Z,1.00
2023-05-09T23:53:51.978Z,0.88
2023-05-09T23:55:54.100Z,1.10
2023-05-09T23:57:56.389Z,0.90
2023-05-09T23:59:58.659Z,1.17
